Decoded Metar for KMIV (MILLVILLE in NJ, USA) (IATA:MIV) | Meteo·Mobile Aviation Weather
aviador You're here:

KMIV Decoded Metar

MILLVILLE in NJ, USA
Report Time2019-09-19 05:54:00
UTC Time2019-09-19 06:09:57
Flight Rules vfr VFR
Wind020° at 04 kt
W.Decomp.*RWY 10: 1.4 kt HW 3.7 kt LCW
RWY 32: 1.3 kt HW 3.8 kt RCW
Visibility9999 m
Phenomena:N/A
Clouds:N/A
Expected CloudBase > 1,200 ft AGL from Temp-Dew spread
CeilingNone
Temp12°C (ISA -3)
Dew Point09°C (82% RH)
AAT10.3°C
QNH1025 hPa
Density Alt-515 ft
Elevation75 ft
Report Wrong Elevation
Raw Report
KMIV 190554Z AUTO 02004KT 10SM CLR 12/09 A3028 RMK AO2 SLP253
T01170089 10156 20111 50000=

Extra information for KMIV:More info

Metar Taf Metar & Taf Last 4 Metars F.Rules Stats Wind Profile Meteogram Temp Stats Airport Information Weather charts Add Link Nearby VenuesMetar ALERT Operation Metar Decoded Social comments

AIRNAV info for KMIV